Magalhaes de Almeida, Brazil
Current Conditions -  °F | °C
As of 11:00 AM on Monday 24 Nov 2014 (Local Time) from SBPB Reporting Station
Clear Clear  
Wind Chill: 93°   Ceiling: Unl
Heat Index: 103°   Visibility: 6mi
Dew Point: 73°   Wind: 21mph
Humidity: 52%   Direction: 60°ENE
Pressure: 29.88"   Gusts: NA
Location:  3.4°S, 42.2°W
Report Text: SBPB 241400Z 06018KT CAVOK 34/23 Q1012
Loading
Personal Weather Stations






























Interactive Weather Map New forecast layout! Learn more

10-Day Weather Forecast

Advertisements
Track Severe Weather on mobile